Time;durP1;ratioP1;P1;durP2;ratioP2;P2;SDS_P1;SDS_P2;PMS_P1;PMS_P2;Temp;Humidity;BMP_temperature;BMP_pressure;BME280_temperature;BME280_humidity;BME280_pressure;Samples;Min_cycle;Max_cycle;Signal;HPM_P1;HPM_P2
2023/12/20 00:00:06;;;;;;;10.90;2.42;;;6.50;99.90;;;;;;5007654;28;20057;-64
2023/12/20 00:02:32;;;;;;;10.82;2.20;;;6.40;99.90;;;;;;5007311;28;20542;-64
2023/12/20 00:04:58;;;;;;;11.82;3.45;;;6.40;99.90;;;;;;5006987;28;20104;-64
2023/12/20 00:07:24;;;;;;;9.82;2.67;;;6.30;99.90;;;;;;5007036;28;20728;-64
2023/12/20 00:09:51;;;;;;;20.20;5.70;;;6.30;99.90;;;;;;5007266;28;20046;-64
2023/12/20 00:12:17;;;;;;;22.25;6.00;;;6.40;99.90;;;;;;4990790;28;20045;-64
2023/12/20 00:14:43;;;;;;;31.27;8.45;;;6.40;99.90;;;;;;4989691;28;20061;-64
2023/12/20 00:17:10;;;;;;;18.92;3.97;;;6.30;99.90;;;;;;5006988;28;20046;-64
2023/12/20 00:19:38;;;;;;;15.25;3.17;;;6.20;99.90;;;;;;5007505;28;20446;-63
2023/12/20 00:22:04;;;;;;;10.20;2.70;;;6.30;99.90;;;;;;5007110;28;20046;-64
2023/12/20 00:24:31;;;;;;;11.15;2.70;;;6.30;99.90;;;;;;5007021;28;20073;-64
2023/12/20 00:26:57;;;;;;;11.68;2.50;;;6.30;99.90;;;;;;5007568;28;20057;-63
2023/12/20 00:29:23;;;;;;;7.95;2.65;;;6.30;99.90;;;;;;5008543;28;20075;-64
2023/12/20 00:31:50;;;;;;;28.80;6.35;;;6.40;99.90;;;;;;5007071;28;20057;-64
2023/12/20 00:34:16;;;;;;;20.58;5.53;;;6.30;99.90;;;;;;5006925;28;20060;-63
2023/12/20 00:36:42;;;;;;;11.13;3.63;;;6.50;99.90;;;;;;5007044;28;20041;-64
2023/12/20 00:39:09;;;;;;;13.52;3.55;;;6.50;99.90;;;;;;5007626;28;20045;-64
2023/12/20 00:41:35;;;;;;;9.75;3.05;;;6.30;99.90;;;;;;5013576;28;20390;-64
2023/12/20 00:44:01;;;;;;;14.23;4.20;;;6.30;99.90;;;;;;5007141;28;20129;-64
2023/12/20 00:46:27;;;;;;;15.18;4.15;;;6.30;99.90;;;;;;5006990;28;20054;-64
2023/12/20 00:48:54;;;;;;;12.00;3.90;;;6.50;99.90;;;;;;5006820;28;20511;-64
2023/12/20 00:51:20;;;;;;;15.30;3.65;;;6.30;99.90;;;;;;5006348;28;20129;-63
2023/12/20 00:53:49;;;;;;;11.00;2.90;;;6.30;99.90;;;;;;5006256;28;20050;-63
2023/12/20 00:56:15;;;;;;;10.48;2.40;;;6.50;99.90;;;;;;4990081;28;20068;-63
2023/12/20 00:58:42;;;;;;;13.02;3.17;;;6.50;99.90;;;;;;5006792;28;20137;-64
2023/12/20 01:01:08;;;;;;;13.63;2.53;;;6.40;99.90;;;;;;5006807;28;20457;-64
2023/12/20 01:03:34;;;;;;;11.68;2.80;;;6.50;99.90;;;;;;5006184;28;20053;-64
2023/12/20 01:06:00;;;;;;;11.00;2.72;;;6.60;99.90;;;;;;5007085;28;20453;-64
2023/12/20 01:08:27;;;;;;;12.88;3.38;;;6.60;99.90;;;;;;5006697;28;20478;-63
2023/12/20 01:10:53;;;;;;;12.35;2.55;;;6.40;99.90;;;;;;5006837;28;20113;-63
2023/12/20 01:13:19;;;;;;;15.98;3.05;;;6.60;99.90;;;;;;5005536;28;20053;-63
2023/12/20 01:15:47;;;;;;;14.30;2.80;;;6.60;99.90;;;;;;5006288;28;20078;-64
2023/12/20 01:18:13;;;;;;;18.92;3.88;;;6.60;99.90;;;;;;4989979;28;20046;-64
2023/12/20 01:20:40;;;;;;;15.20;3.30;;;6.50;99.90;;;;;;5006885;28;20073;-63
2023/12/20 01:23:06;;;;;;;35.88;6.88;;;6.70;99.90;;;;;;5005808;28;20054;-65
2023/12/20 01:25:33;;;;;;;20.88;4.65;;;6.60;99.90;;;;;;5006457;28;20054;-64
2023/12/20 01:27:59;;;;;;;30.02;7.13;;;6.60;99.90;;;;;;5010997;28;20042;-64
2023/12/20 01:30:25;;;;;;;23.70;5.38;;;6.40;99.90;;;;;;5010273;28;20049;-64
2023/12/20 01:32:52;;;;;;;19.08;4.20;;;6.50;99.90;;;;;;5010059;28;20046;-64
2023/12/20 01:35:18;;;;;;;18.05;5.65;;;6.40;99.90;;;;;;5009975;28;20484;-64
2023/12/20 01:37:44;;;;;;;25.55;4.93;;;6.40;99.90;;;;;;5009545;28;20081;-64
2023/12/20 01:40:11;;;;;;;17.10;4.38;;;6.40;99.90;;;;;;5010484;28;20054;-64
2023/12/20 01:42:37;;;;;;;23.05;4.88;;;6.50;99.90;;;;;;5009736;28;20050;-63
2023/12/20 01:45:04;;;;;;;34.22;6.53;;;6.50;99.90;;;;;;5009586;28;20053;-63
2023/12/20 01:47:30;;;;;;;15.82;3.55;;;6.60;99.90;;;;;;5010145;28;20060;-64
2023/12/20 01:49:57;;;;;;;14.98;3.45;;;6.60;99.90;;;;;;5009878;28;20449;-64
2023/12/20 01:52:25;;;;;;;24.02;6.30;;;6.50;99.90;;;;;;5009562;28;20061;-63
2023/12/20 01:54:54;;;;;;;43.58;6.30;;;6.60;99.90;;;;;;5009038;28;20042;-63
2023/12/20 01:57:21;;;;;;;37.65;6.78;;;6.50;99.90;;;;;;5010826;28;20046;-63
2023/12/20 01:59:47;;;;;;;24.95;4.05;;;6.40;99.90;;;;;;5009980;28;20478;-63
2023/12/20 02:02:14;;;;;;;25.85;4.72;;;6.50;99.90;;;;;;5009373;28;20057;-63
2023/12/20 02:04:41;;;;;;;8.98;1.90;;;6.40;99.90;;;;;;5009500;28;20050;-63
2023/12/20 02:07:08;;;;;;;8.85;2.22;;;6.40;99.90;;;;;;5010844;28;20054;-63
2023/12/20 02:09:35;;;;;;;6.03;1.77;;;6.40;99.90;;;;;;5009509;28;20140;-63
2023/12/20 02:12:03;;;;;;;14.90;2.90;;;6.40;99.90;;;;;;5009432;28;20053;-63
2023/12/20 02:14:30;;;;;;;14.85;3.47;;;6.40;99.90;;;;;;5010514;28;20057;-63
2023/12/20 02:16:56;;;;;;;21.45;4.63;;;6.30;99.90;;;;;;5010250;28;20042;-64
2023/12/20 02:19:23;;;;;;;26.45;5.47;;;6.50;99.90;;;;;;5010395;28;20046;-63
2023/12/20 02:21:49;;;;;;;25.77;5.95;;;6.40;99.90;;;;;;5010248;28;20128;-63
2023/12/20 02:24:17;;;;;;;18.20;4.22;;;6.60;99.90;;;;;;5009937;28;20480;-63
2023/12/20 02:26:43;;;;;;;23.02;4.07;;;6.50;99.90;;;;;;5010484;28;20094;-64
2023/12/20 02:29:10;;;;;;;19.83;4.20;;;6.60;99.90;;;;;;5010383;28;20064;-64
2023/12/20 02:31:36;;;;;;;23.70;4.75;;;6.60;99.90;;;;;;5010282;28;20049;-64
2023/12/20 02:34:02;;;;;;;20.60;4.18;;;6.70;99.90;;;;;;5009585;28;20045;-64
2023/12/20 02:36:30;;;;;;;18.40;3.83;;;6.70;99.90;;;;;;5010381;28;20046;-63
2023/12/20 02:38:56;;;;;;;31.33;6.40;;;6.60;99.90;;;;;;5009630;28;20377;-63
2023/12/20 02:41:22;;;;;;;45.67;7.78;;;6.80;99.90;;;;;;5010025;28;20467;-64
2023/12/20 02:43:49;;;;;;;33.50;5.60;;;6.70;99.90;;;;;;5010172;28;20060;-64
2023/12/20 02:46:16;;;;;;;31.38;7.60;;;6.50;99.90;;;;;;5010501;28;20053;-63
2023/12/20 02:48:43;;;;;;;25.70;6.45;;;6.50;99.90;;;;;;5010218;28;20061;-64
2023/12/20 02:51:09;;;;;;;25.35;7.28;;;6.70;99.90;;;;;;5010046;28;20046;-64
2023/12/20 02:53:35;;;;;;;29.77;7.25;;;6.50;99.90;;;;;;5009653;28;20064;-63
2023/12/20 02:56:02;;;;;;;29.10;6.35;;;6.70;99.90;;;;;;5009817;28;20362;-64
2023/12/20 02:58:28;;;;;;;29.27;7.78;;;6.60;99.90;;;;;;5010141;28;20148;-63
2023/12/20 03:00:54;;;;;;;37.10;8.25;;;6.60;99.90;;;;;;5010148;28;20046;-64
2023/12/20 03:03:22;;;;;;;25.85;5.22;;;6.70;99.90;;;;;;5008793;28;20466;-63
2023/12/20 03:05:48;;;;;;;23.63;6.93;;;6.70;99.90;;;;;;5009591;28;20335;-63
2023/12/20 03:08:14;;;;;;;22.98;5.72;;;6.70;99.90;;;;;;5009632;28;20056;-64
2023/12/20 03:10:41;;;;;;;14.88;4.45;;;6.80;99.90;;;;;;5008418;28;20081;-64
2023/12/20 03:13:07;;;;;;;17.38;4.45;;;7.00;99.90;;;;;;4991543;28;20050;-63
2023/12/20 03:15:33;;;;;;;18.15;3.92;;;6.80;99.90;;;;;;4992198;28;20045;-63
2023/12/20 03:18:00;;;;;;;18.35;3.85;;;6.90;99.90;;;;;;5008693;28;20073;-64
2023/12/20 03:20:26;;;;;;;14.18;3.45;;;6.80;99.90;;;;;;5008707;28;20148;-63
2023/12/20 03:22:52;;;;;;;36.22;5.57;;;6.80;99.90;;;;;;5007785;28;20048;-64
2023/12/20 03:25:19;;;;;;;30.92;7.05;;;6.80;99.90;;;;;;5009015;28;20053;-64
2023/12/20 03:27:45;;;;;;;40.50;6.70;;;6.80;99.90;;;;;;5008196;28;20060;-63
2023/12/20 03:30:12;;;;;;;31.88;6.53;;;6.80;99.90;;;;;;5008335;28;20427;-64
2023/12/20 03:32:38;;;;;;;22.27;5.40;;;6.90;99.90;;;;;;5008200;28;20066;-64
2023/12/20 03:35:05;;;;;;;23.17;6.32;;;7.00;99.90;;;;;;5007691;28;20181;-63
2023/12/20 03:37:35;;;;;;;17.63;5.28;;;7.00;99.90;;;;;;5007942;28;20060;-64
2023/12/20 03:40:03;;;;;;;17.42;4.22;;;6.80;99.90;;;;;;5009583;28;20054;-64
2023/12/20 03:42:30;;;;;;;22.75;6.22;;;6.90;99.90;;;;;;5008176;28;20053;-64
2023/12/20 03:44:56;;;;;;;19.25;5.78;;;6.90;99.90;;;;;;5008854;28;20050;-64
2023/12/20 03:47:22;;;;;;;28.25;5.95;;;7.10;99.90;;;;;;5009295;28;20103;-64
2023/12/20 03:49:49;;;;;;;26.13;6.38;;;7.00;99.90;;;;;;5001234;28;20045;-63
2023/12/20 03:52:15;;;;;;;23.20;5.38;;;6.90;99.90;;;;;;4999350;28;20537;-64
2023/12/20 03:54:42;;;;;;;22.00;5.38;;;7.20;99.90;;;;;;4996229;28;20052;-64
2023/12/20 03:57:08;;;;;;;21.35;6.18;;;7.00;99.90;;;;;;4996915;28;20042;-64
2023/12/20 03:59:36;;;;;;;17.02;4.70;;;6.90;99.90;;;;;;4991593;28;20076;-63
2023/12/20 04:02:03;;;;;;;18.52;6.00;;;7.10;99.90;;;;;;5005429;28;20053;-64
2023/12/20 04:04:30;;;;;;;15.98;4.35;;;6.90;99.90;;;;;;5008085;28;20062;-64
2023/12/20 04:06:56;;;;;;;36.83;7.68;;;7.00;99.90;;;;;;5008089;28;20064;-63
2023/12/20 04:09:22;;;;;;;16.00;4.43;;;7.00;99.90;;;;;;5007899;28;20616;-64
2023/12/20 04:11:49;;;;;;;17.38;5.10;;;6.90;99.90;;;;;;5008206;28;20148;-64
2023/12/20 04:14:15;;;;;;;15.68;4.65;;;6.80;99.90;;;;;;5008318;28;20046;-64
2023/12/20 04:16:42;;;;;;;15.40;4.15;;;6.90;99.90;;;;;;5008376;28;20070;-64
2023/12/20 04:19:08;;;;;;;19.35;5.30;;;6.90;99.90;;;;;;5008786;28;20114;-64
2023/12/20 04:21:35;;;;;;;18.33;5.40;;;6.80;99.90;;;;;;5008459;28;20053;-64
2023/12/20 04:24:01;;;;;;;17.70;4.70;;;6.70;99.90;;;;;;5007167;28;20418;-63
2023/12/20 04:26:29;;;;;;;21.02;4.45;;;6.90;99.90;;;;;;5008860;28;20073;-64
2023/12/20 04:28:55;;;;;;;22.52;7.32;;;6.90;99.90;;;;;;5008741;28;20137;-64
2023/12/20 04:31:21;;;;;;;22.45;6.10;;;6.80;99.90;;;;;;5008266;28;20381;-64
2023/12/20 04:33:48;;;;;;;24.23;6.13;;;6.80;99.90;;;;;;5004164;28;20163;-65
2023/12/20 04:36:14;;;;;;;24.17;6.22;;;7.00;99.90;;;;;;4989108;28;20077;-64
2023/12/20 04:38:41;;;;;;;24.73;6.38;;;7.00;99.90;;;;;;4989090;28;20057;-64
2023/12/20 04:41:07;;;;;;;24.67;5.70;;;6.90;99.90;;;;;;4989315;28;20062;-64
2023/12/20 04:43:33;;;;;;;24.58;5.28;;;6.90;99.90;;;;;;5008573;28;20461;-64
2023/12/20 04:46:00;;;;;;;24.02;5.55;;;7.10;99.90;;;;;;5008925;28;20346;-64
2023/12/20 04:48:26;;;;;;;25.58;6.25;;;7.00;99.90;;;;;;5007488;28;20558;-65
2023/12/20 04:50:52;;;;;;;23.45;4.90;;;7.10;99.90;;;;;;5007616;28;20077;-64
2023/12/20 04:53:19;;;;;;;29.73;6.28;;;7.00;99.90;;;;;;5007784;28;20374;-64
2023/12/20 04:55:45;;;;;;;20.25;4.57;;;7.20;99.90;;;;;;5007073;28;20077;-63
2023/12/20 04:58:11;;;;;;;18.58;4.53;;;7.00;99.90;;;;;;5007364;28;20159;-64
2023/12/20 05:00:41;;;;;;;14.55;4.15;;;7.00;99.90;;;;;;5007334;28;20442;-64
2023/12/20 05:03:07;;;;;;;18.92;4.57;;;7.30;99.90;;;;;;5010097;28;20050;-64
2023/12/20 05:05:34;;;;;;;22.02;4.80;;;7.10;99.90;;;;;;5012582;28;20057;-64
2023/12/20 05:08:00;;;;;;;26.75;5.35;;;7.30;99.90;;;;;;5011876;28;20529;-64
2023/12/20 05:10:27;;;;;;;27.67;6.13;;;7.30;99.90;;;;;;5012480;28;20064;-64
2023/12/20 05:12:53;;;;;;;25.50;6.80;;;7.30;99.90;;;;;;5010385;28;20082;-64
2023/12/20 05:15:19;;;;;;;25.42;6.30;;;7.20;99.90;;;;;;5012091;28;20133;-65
2023/12/20 05:17:46;;;;;;;20.17;4.63;;;7.40;99.90;;;;;;5012151;28;20496;-64
2023/12/20 05:20:12;;;;;;;26.83;6.22;;;7.30;99.90;;;;;;5012581;28;20042;-64
2023/12/20 05:22:38;;;;;;;25.70;5.72;;;7.20;99.90;;;;;;5011253;28;20049;-64
2023/12/20 05:25:05;;;;;;;22.23;6.00;;;7.20;99.90;;;;;;5012016;28;20350;-64
2023/12/20 05:27:31;;;;;;;23.02;4.88;;;7.20;99.90;;;;;;5010710;28;20065;-65
2023/12/20 05:29:58;;;;;;;17.20;5.03;;;7.30;99.90;;;;;;5011809;28;20362;-64
2023/12/20 05:32:24;;;;;;;25.33;5.70;;;7.30;99.90;;;;;;5010922;28;20505;-64
2023/12/20 05:34:50;;;;;;;18.67;4.90;;;7.20;99.90;;;;;;5010277;28;20053;-64
2023/12/20 05:37:16;;;;;;;24.83;5.65;;;7.30;99.90;;;;;;5009860;28;20474;-64
2023/12/20 05:39:43;;;;;;;15.02;3.47;;;7.30;99.90;;;;;;5010587;28;20056;-64
2023/12/20 05:42:09;;;;;;;15.18;3.47;;;7.30;99.90;;;;;;5010477;28;20106;-64
2023/12/20 05:44:36;;;;;;;18.20;6.72;;;7.30;99.90;;;;;;5010218;28;20479;-63
2023/12/20 05:47:02;;;;;;;17.55;4.97;;;7.30;99.90;;;;;;5010605;28;20053;-64
2023/12/20 05:49:29;;;;;;;15.90;5.07;;;7.30;99.90;;;;;;5010167;28;20390;-64
2023/12/20 05:51:55;;;;;;;16.05;3.95;;;7.30;99.90;;;;;;4993781;28;20562;-64
2023/12/20 05:54:21;;;;;;;15.07;3.75;;;7.30;99.90;;;;;;5009625;28;20060;-64
2023/12/20 05:56:48;;;;;;;16.38;3.83;;;7.40;99.90;;;;;;5010238;28;20073;-64
2023/12/20 05:59:14;;;;;;;15.70;4.03;;;7.30;99.90;;;;;;5010094;28;20104;-63
2023/12/20 06:01:41;;;;;;;15.38;4.07;;;7.50;99.90;;;;;;5008023;28;20061;-64
2023/12/20 06:04:07;;;;;;;14.25;3.97;;;7.50;99.90;;;;;;4991456;28;20042;-64
2023/12/20 06:06:33;;;;;;;14.85;4.10;;;7.50;99.90;;;;;;5007086;28;20413;-64
2023/12/20 06:09:00;;;;;;;17.00;3.90;;;7.50;99.90;;;;;;5009291;28;20041;-64
2023/12/20 06:11:31;;;;;;;14.70;3.72;;;7.50;99.90;;;;;;5008457;28;20057;-66
2023/12/20 06:13:58;;;;;;;15.65;5.10;;;7.30;99.90;;;;;;5009556;28;20581;-66
2023/12/20 06:16:24;;;;;;;19.58;4.45;;;7.30;99.90;;;;;;5025050;28;20046;-66
2023/12/20 06:18:50;;;;;;;17.88;3.85;;;7.50;99.90;;;;;;5010629;28;20041;-66
2023/12/20 06:21:17;;;;;;;16.50;3.80;;;7.50;99.90;;;;;;5007963;28;20046;-66
2023/12/20 06:23:43;;;;;;;16.60;3.63;;;7.40;99.90;;;;;;5008425;28;20440;-66
2023/12/20 06:26:09;;;;;;;15.23;4.40;;;7.40;99.90;;;;;;5009440;28;20049;-66
2023/12/20 06:28:36;;;;;;;15.05;4.03;;;7.50;99.90;;;;;;4993461;28;20057;-65
2023/12/20 06:31:03;;;;;;;14.15;4.00;;;7.50;99.90;;;;;;5009269;28;20052;-65
2023/12/20 06:33:33;;;;;;;22.38;4.65;;;7.50;99.90;;;;;;5008929;28;20073;-65
2023/12/20 06:36:01;;;;;;;15.77;4.20;;;7.50;99.90;;;;;;5010611;28;20064;-67
2023/12/20 06:38:27;;;;;;;25.55;4.50;;;7.60;99.90;;;;;;5009161;28;20042;-66
2023/12/20 06:40:54;;;;;;;18.60;4.00;;;7.70;99.90;;;;;;5009477;28;20046;-66
2023/12/20 06:43:20;;;;;;;18.30;3.47;;;7.70;99.90;;;;;;5008445;28;20049;-65
2023/12/20 06:45:46;;;;;;;17.52;3.90;;;7.50;99.90;;;;;;5010286;28;20386;-65
2023/12/20 06:48:13;;;;;;;22.05;4.85;;;7.70;99.90;;;;;;5009533;28;20054;-65
2023/12/20 06:50:42;;;;;;;18.02;3.65;;;7.50;99.90;;;;;;5008613;28;20419;-66
2023/12/20 06:53:08;;;;;;;12.20;3.33;;;7.60;99.90;;;;;;4989317;28;20065;-66
2023/12/20 06:55:37;;;;;;;14.00;3.63;;;7.60;99.90;;;;;;5009947;28;20065;-65
2023/12/20 06:58:04;;;;;;;15.77;3.63;;;7.50;99.90;;;;;;5009415;28;20054;-65
2023/12/20 07:00:30;;;;;;;17.30;4.38;;;7.70;99.90;;;;;;5010130;28;20058;-65
2023/12/20 07:02:59;;;;;;;13.77;4.25;;;7.50;99.90;;;;;;5008593;28;20134;-66
2023/12/20 07:05:26;;;;;;;16.63;3.85;;;7.50;99.90;;;;;;5008534;28;20089;-66
2023/12/20 07:07:52;;;;;;;17.35;4.80;;;7.50;99.90;;;;;;5008749;28;20062;-66
2023/12/20 07:10:19;;;;;;;16.20;4.28;;;7.60;99.90;;;;;;5008722;28;20430;-65
2023/12/20 07:12:45;;;;;;;16.08;4.35;;;7.50;99.90;;;;;;5009611;28;20465;-65
2023/12/20 07:15:12;;;;;;;18.80;5.28;;;7.50;99.90;;;;;;5009667;28;20045;-64
2023/12/20 07:17:38;;;;;;;18.10;4.40;;;7.50;99.90;;;;;;5010032;28;20061;-66
2023/12/20 07:20:06;;;;;;;24.20;4.68;;;7.70;99.90;;;;;;4991642;28;20104;-65
2023/12/20 07:22:33;;;;;;;19.92;4.63;;;7.70;99.90;;;;;;5009032;28;20049;-65
2023/12/20 07:25:00;;;;;;;18.83;5.28;;;7.60;99.90;;;;;;5009632;28;20061;-66
2023/12/20 07:27:26;;;;;;;20.88;5.20;;;7.80;99.90;;;;;;5009734;28;20046;-65
2023/12/20 07:29:53;;;;;;;18.48;4.15;;;7.60;99.90;;;;;;5008170;28;20054;-66
2023/12/20 07:32:20;;;;;;;15.18;4.10;;;7.80;99.90;;;;;;5008158;28;20502;-65
2023/12/20 07:34:50;;;;;;;16.15;4.32;;;7.60;99.90;;;;;;5009561;28;20049;-66
2023/12/20 07:37:16;;;;;;;20.83;4.40;;;7.70;99.90;;;;;;5007479;28;20064;-66
2023/12/20 07:39:44;;;;;;;18.05;4.10;;;7.80;99.90;;;;;;5008691;28;20046;-66
2023/12/20 07:42:10;;;;;;;23.02;4.53;;;7.80;99.90;;;;;;5009186;28;20411;-66
2023/12/20 07:44:37;;;;;;;17.48;4.40;;;7.80;99.90;;;;;;4992413;28;20125;-67
2023/12/20 07:47:04;;;;;;;18.52;4.40;;;7.80;99.90;;;;;;5009770;28;20065;-66
2023/12/20 07:49:31;;;;;;;20.15;5.75;;;7.60;99.90;;;;;;4991449;28;20056;-66
2023/12/20 07:51:58;;;;;;;17.67;4.00;;;7.80;99.90;;;;;;5008721;28;20558;-66
2023/12/20 07:54:24;;;;;;;13.05;3.53;;;7.90;99.90;;;;;;5009210;28;20057;-65
2023/12/20 07:56:51;;;;;;;17.20;4.20;;;7.70;99.90;;;;;;5009209;28;20050;-66
2023/12/20 07:59:17;;;;;;;18.80;4.13;;;7.80;99.90;;;;;;5008748;28;20504;-66
2023/12/20 08:01:45;;;;;;;13.30;3.47;;;7.80;99.90;;;;;;5009126;28;20140;-66
2023/12/20 08:04:15;;;;;;;19.10;4.40;;;7.80;99.90;;;;;;5009421;28;20049;-66
2023/12/20 08:06:42;;;;;;;14.00;3.42;;;7.80;99.90;;;;;;5007751;28;20053;-66
2023/12/20 08:09:08;;;;;;;19.17;5.00;;;7.80;99.90;;;;;;5008034;28;20049;-66
2023/12/20 08:11:34;;;;;;;18.67;3.70;;;7.90;99.90;;;;;;5006814;28;20053;-67
2023/12/20 08:14:00;;;;;;;21.90;4.85;;;7.90;99.90;;;;;;5009001;28;20056;-66
2023/12/20 08:16:27;;;;;;;18.25;4.22;;;7.70;99.90;;;;;;5009166;28;20073;-66
2023/12/20 08:18:53;;;;;;;22.60;4.75;;;7.70;99.90;;;;;;4991595;28;20054;-67
2023/12/20 08:21:22;;;;;;;15.95;3.97;;;7.80;99.90;;;;;;5008897;28;20057;-67
2023/12/20 08:23:49;;;;;;;17.15;4.80;;;7.80;99.90;;;;;;5008461;28;20526;-67
2023/12/20 08:26:20;;;;;;;18.58;4.38;;;8.00;99.90;;;;;;5007759;28;20064;-67
2023/12/20 08:28:47;;;;;;;17.13;4.25;;;7.80;99.90;;;;;;5007565;28;20129;-67
2023/12/20 08:31:17;;;;;;;12.40;3.13;;;7.80;99.90;;;;;;5007644;28;20369;-67
2023/12/20 08:33:44;;;;;;;20.73;4.20;;;7.90;99.90;;;;;;5008642;28;20050;-67
2023/12/20 08:36:11;;;;;;;23.33;4.53;;;7.90;99.90;;;;;;5008665;28;20133;-67
2023/12/20 08:38:39;;;;;;;17.65;3.38;;;7.90;99.90;;;;;;5010993;28;20049;-67
2023/12/20 08:41:06;;;;;;;17.77;3.70;;;8.10;99.90;;;;;;5011744;28;20042;-66
2023/12/20 08:43:35;;;;;;;10.95;3.50;;;7.90;99.90;;;;;;5011719;28;20145;-67
2023/12/20 08:46:02;;;;;;;16.90;3.67;;;8.00;99.90;;;;;;5011599;28;20061;-67
2023/12/20 08:48:29;;;;;;;19.38;3.90;;;7.90;99.90;;;;;;5012422;28;20046;-67
2023/12/20 08:50:55;;;;;;;20.98;4.55;;;7.90;99.90;;;;;;4995414;28;20378;-67
2023/12/20 08:53:21;;;;;;;19.48;4.32;;;8.10;99.90;;;;;;5012670;28;20061;-67
2023/12/20 08:55:48;;;;;;;13.27;3.67;;;8.10;99.90;;;;;;4994750;28;20056;-66
2023/12/20 08:58:14;;;;;;;14.93;2.95;;;8.00;99.90;;;;;;5011066;28;20088;-67
2023/12/20 09:00:41;;;;;;;11.45;3.65;;;8.10;99.90;;;;;;4994952;28;20258;-66
2023/12/20 09:03:07;;;;;;;18.08;3.85;;;8.00;99.90;;;;;;5012385;28;20060;-67
2023/12/20 09:05:34;;;;;;;19.08;3.58;;;8.20;99.90;;;;;;4995149;28;20065;-66
2023/12/20 09:08:01;;;;;;;15.48;3.67;;;8.00;99.90;;;;;;5010480;28;20458;-67
2023/12/20 09:10:28;;;;;;;14.65;3.20;;;8.20;99.90;;;;;;5011001;28;20054;-66
2023/12/20 09:12:58;;;;;;;13.38;4.18;;;8.10;99.90;;;;;;5008175;28;20073;-66
2023/12/20 09:15:26;;;;;;;16.65;3.40;;;8.30;99.90;;;;;;5011822;28;20470;-66
2023/12/20 09:17:53;;;;;;;13.10;2.88;;;8.10;99.90;;;;;;5011849;28;20042;-65
2023/12/20 09:20:20;;;;;;;17.42;3.78;;;8.10;99.90;;;;;;5012229;28;20054;-64
2023/12/20 09:22:46;;;;;;;17.45;3.83;;;8.20;99.90;;;;;;5011419;28;20473;-66
2023/12/20 09:25:13;;;;;;;13.70;3.47;;;8.20;99.90;;;;;;5010624;28;20330;-66
2023/12/20 09:27:40;;;;;;;8.57;3.17;;;8.10;99.90;;;;;;5010942;28;20062;-66
2023/12/20 09:30:07;;;;;;;16.35;3.65;;;8.10;99.90;;;;;;5010441;28;20355;-66
2023/12/20 09:32:33;;;;;;;12.57;4.00;;;8.10;99.90;;;;;;5010842;28;20136;-66
2023/12/20 09:35:01;;;;;;;13.18;3.05;;;8.20;99.90;;;;;;4994370;28;20053;-66
2023/12/20 09:37:28;;;;;;;13.57;3.50;;;8.10;99.90;;;;;;5011912;28;20108;-66
2023/12/20 09:39:55;;;;;;;15.85;4.50;;;8.10;99.90;;;;;;5010442;28;20410;-66
2023/12/20 09:42:40;;;;;;;14.95;3.67;;;8.30;99.90;;;;;;5010490;28;20596;-68
2023/12/20 09:45:09;;;;;;;17.30;3.75;;;8.40;99.90;;;;;;5010505;28;20461;-66
2023/12/20 09:47:36;;;;;;;14.40;3.65;;;8.60;99.90;;;;;;4993671;28;20410;-66
2023/12/20 09:50:03;;;;;;;13.98;3.28;;;8.50;99.90;;;;;;5011354;28;20054;-66
2023/12/20 09:52:30;;;;;;;13.00;2.92;;;8.60;99.90;;;;;;5006925;28;20179;-66
2023/12/20 09:54:58;;;;;;;16.00;3.88;;;8.50;99.90;;;;;;4974310;28;20055;-66
2023/12/20 09:57:28;;;;;;;17.80;4.10;;;8.50;99.90;;;;;;5006841;28;20137;-66
2023/12/20 09:59:55;;;;;;;12.25;3.00;;;8.70;99.90;;;;;;5006746;28;20102;-66
2023/12/20 10:02:26;;;;;;;14.48;4.13;;;8.60;99.90;;;;;;4997668;28;20116;-66
2023/12/20 10:04:52;;;;;;;16.98;3.38;;;8.70;99.90;;;;;;4994298;28;20057;-66
2023/12/20 10:07:19;;;;;;;16.30;3.72;;;8.60;99.90;;;;;;5009738;28;20048;-65
2023/12/20 10:09:46;;;;;;;9.90;2.40;;;8.20;99.90;;;;;;5010503;28;20049;-65
2023/12/20 10:12:13;;;;;;;16.20;4.47;;;7.10;99.90;;;;;;4993097;28;20045;-66
2023/12/20 10:14:40;;;;;;;7.72;2.42;;;6.90;99.90;;;;;;5009882;28;20251;-66
2023/12/20 10:17:06;;;;;;;10.68;2.70;;;6.70;99.90;;;;;;5010583;28;20056;-65
2023/12/20 10:19:34;;;;;;;10.02;2.42;;;6.70;99.90;;;;;;5009419;28;20045;-64
2023/12/20 10:22:01;;;;;;;10.35;2.85;;;6.80;99.90;;;;;;5010753;28;20050;-64
2023/12/20 10:24:31;;;;;;;7.38;2.00;;;6.70;99.90;;;;;;5009644;28;20450;-65
2023/12/20 10:27:08;;;;;;;10.23;2.38;;;6.60;99.90;;;;;;4993085;28;20068;-65
2023/12/20 10:29:38;;;;;;;8.68;2.08;;;6.60;99.90;;;;;;4992865;28;20130;-64
2023/12/20 10:32:24;;;;;;;7.53;2.63;;;6.80;99.90;;;;;;5010426;28;20042;-65
2023/12/20 10:34:56;;;;;;;9.85;2.33;;;6.80;99.90;;;;;;5009330;28;20057;-65
2023/12/20 10:37:22;;;;;;;9.63;2.85;;;6.70;99.90;;;;;;5010124;28;20458;-65
2023/12/20 10:39:57;;;;;;;9.38;2.40;;;6.80;99.90;;;;;;5009238;28;20088;-65
2023/12/20 10:42:27;;;;;;;9.88;1.80;;;6.90;99.90;;;;;;5010481;28;20481;-65
2023/12/20 10:44:53;;;;;;;7.30;2.05;;;6.90;99.90;;;;;;5010557;28;20451;-65
2023/12/20 10:47:20;;;;;;;9.75;2.25;;;6.70;99.90;;;;;;5009456;28;20415;-65
2023/12/20 10:49:49;;;;;;;11.25;2.55;;;6.70;99.90;;;;;;5009470;28;20050;-65
2023/12/20 10:52:17;;;;;;;6.95;2.40;;;6.90;99.90;;;;;;5008744;28;20137;-65
2023/12/20 10:54:44;;;;;;;9.60;2.28;;;6.80;99.90;;;;;;5009022;28;20065;-65
2023/12/20 10:57:19;;;;;;;8.00;1.83;;;6.90;99.90;;;;;;5008673;28;20045;-65
2023/12/20 10:59:49;;;;;;;9.98;2.38;;;6.70;99.90;;;;;;5007868;28;20592;-65
2023/12/20 11:02:15;;;;;;;9.60;2.03;;;6.90;99.90;;;;;;4992549;28;20046;-65
2023/12/20 11:05:29;;;;;;;9.15;1.90;;;6.70;99.90;;;;;;5008980;28;20068;-65
2023/12/20 11:08:03;;;;;;;;;;;6.90;99.90;;;;;;4969621;28;20061;-65
2023/12/20 11:10:59;;;;;;;6.43;2.00;;;6.70;99.90;;;;;;4977144;28;20324;-64
2023/12/20 11:13:40;;;;;;;9.93;2.45;;;6.90;99.90;;;;;;5009937;28;20061;-65
2023/12/20 11:16:07;;;;;;;6.97;1.58;;;6.60;99.90;;;;;;4992510;28;20466;-65
2023/12/20 11:18:34;;;;;;;9.35;1.80;;;6.60;99.90;;;;;;5008572;28;20148;-64
2023/12/20 11:21:05;;;;;;;6.80;1.38;;;6.60;99.90;;;;;;5009914;28;20124;-65
2023/12/20 11:23:35;;;;;;;5.85;1.45;;;6.80;99.90;;;;;;5008690;28;20417;-64
2023/12/20 11:26:02;;;;;;;5.75;1.60;;;6.80;99.90;;;;;;5008453;28;20061;-65
2023/12/20 11:28:30;;;;;;;5.75;1.52;;;6.90;99.90;;;;;;5008066;28;20056;-65
2023/12/20 11:31:00;;;;;;;7.35;1.67;;;6.90;99.90;;;;;;5008227;28;20057;-65
2023/12/20 11:33:31;;;;;;;7.57;2.05;;;6.90;99.90;;;;;;5008051;28;20093;-65
2023/12/20 11:35:59;;;;;;;7.18;1.92;;;6.90;99.90;;;;;;5009413;28;20046;-64
2023/12/20 11:38:25;;;;;;;5.30;1.70;;;6.80;99.90;;;;;;5007777;28;20050;-65
2023/12/20 11:40:56;;;;;;;7.57;1.88;;;7.00;99.90;;;;;;5008341;28;20065;-65
2023/12/20 11:43:54;;;;;;;8.07;1.73;;;6.90;99.90;;;;;;5009625;28;20062;-65
2023/12/20 11:46:20;;;;;;;9.05;1.98;;;6.80;99.90;;;;;;4991260;28;20386;-66
2023/12/20 11:48:48;;;;;;;8.43;1.85;;;6.90;99.90;;;;;;5007701;28;20053;-65
2023/12/20 11:51:17;;;;;;;8.73;1.50;;;6.70;99.90;;;;;;5007731;28;20073;-64
2023/12/20 11:53:44;;;;;;;8.80;2.53;;;7.00;99.90;;;;;;5009187;28;20136;-65
2023/12/20 11:56:12;;;;;;;8.32;1.73;;;6.80;99.90;;;;;;5007486;28;20254;-66
2023/12/20 11:58:38;;;;;;;7.05;2.15;;;7.00;99.90;;;;;;5007945;28;20050;-66
2023/12/20 12:01:07;;;;;;;7.63;1.95;;;6.80;99.90;;;;;;5009327;28;20045;-66
2023/12/20 12:03:33;;;;;;;10.13;2.40;;;6.80;99.90;;;;;;5009301;28;20439;-66
2023/12/20 12:06:00;;;;;;;7.13;2.00;;;7.00;99.90;;;;;;5008150;28;20448;-66
2023/12/20 12:08:27;;;;;;;9.90;2.22;;;6.80;99.90;;;;;;5009026;28;20050;-66
2023/12/20 12:10:53;;;;;;;12.07;2.20;;;7.10;99.90;;;;;;5008507;28;20111;-66
2023/12/20 12:13:21;;;;;;;9.27;2.25;;;6.90;99.90;;;;;;5004442;28;20058;-66
2023/12/20 12:15:48;;;;;;;7.30;1.88;;;7.10;99.90;;;;;;4989051;28;20510;-66
2023/12/20 12:18:18;;;;;;;5.22;1.52;;;7.00;99.90;;;;;;4971635;28;20138;-66
2023/12/20 12:20:45;;;;;;;6.93;1.73;;;7.00;99.90;;;;;;4989257;28;20060;-66
2023/12/20 12:23:13;;;;;;;6.53;1.75;;;6.80;99.90;;;;;;5002084;28;20042;-67
2023/12/20 12:25:39;;;;;;;6.60;1.65;;;7.10;99.90;;;;;;4991365;28;20363;-67
2023/12/20 12:28:05;;;;;;;7.07;2.10;;;7.10;99.90;;;;;;5007390;28;20058;-67
2023/12/20 12:30:32;;;;;;;5.00;2.15;;;7.10;99.90;;;;;;5009116;28;20054;-66
2023/12/20 12:32:58;;;;;;;7.85;1.70;;;6.90;99.90;;;;;;5004700;28;20060;-66
2023/12/20 12:35:25;;;;;;;5.75;2.22;;;7.00;99.90;;;;;;4988325;28;20058;-67
2023/12/20 12:37:52;;;;;;;10.30;1.70;;;7.00;99.90;;;;;;4987697;28;20085;-67
2023/12/20 12:40:19;;;;;;;6.60;2.13;;;7.00;99.90;;;;;;4988566;28;20130;-66
2023/12/20 12:42:46;;;;;;;6.95;1.92;;;7.10;99.90;;;;;;4993753;28;20073;-66
2023/12/20 12:45:12;;;;;;;8.00;2.03;;;7.20;99.90;;;;;;4988045;28;20379;-67
2023/12/20 12:47:39;;;;;;;6.00;2.00;;;7.10;99.90;;;;;;4987558;28;20167;-67